Time;durP1;ratioP1;P1;durP2;ratioP2;P2;SDS_P1;SDS_P2;PMS_P1;PMS_P2;Temp;Humidity;BMP_temperature;BMP_pressure;BME280_temperature;BME280_humidity;BME280_pressure;Samples;Min_cycle;Max_cycle;Signal;HPM_P1;HPM_P2
2022/08/24 00:02:08;;;;;;;4.28;3.17;;;;;;;;;;5071787;28;20488;-81
2022/08/24 00:04:34;;;;;;;5.20;2.90;;;;;;;;;;5070302;28;20428;-82
2022/08/24 00:07:01;;;;;;;5.22;3.30;;;;;;;;;;5072947;28;20427;-81
2022/08/24 00:09:28;;;;;;;4.18;3.00;;;;;;;;;;5073404;28;20431;-81
2022/08/24 00:11:55;;;;;;;3.80;3.03;;;;;;;;;;5048402;28;20935;-82
2022/08/24 00:14:21;;;;;;;3.60;3.10;;;;;;;;;;5056250;28;20781;-82
2022/08/24 00:16:50;;;;;;;4.10;2.93;;;;;;;;;;5077026;28;20417;-80
2022/08/24 00:19:17;;;;;;;4.05;2.78;;;;;;;;;;5076712;28;20447;-81
2022/08/24 00:21:44;;;;;;;6.20;2.90;;;;;;;;;;5063255;28;20433;-82
2022/08/24 00:24:10;;;;;;;4.60;2.88;;;;;;;;;;5071612;28;20486;-81
2022/08/24 00:26:38;;;;;;;4.45;3.15;;;;;;;;;;5062674;28;20427;-81
2022/08/24 00:29:05;;;;;;;6.97;3.23;;;;;;;;;;5077895;28;20431;-80
2022/08/24 00:31:33;;;;;;;4.75;2.90;;;;;;;;;;5077598;28;20417;-80
2022/08/24 00:34:19;;;;;;;6.25;2.80;;;;;;;;;;5073290;28;20432;-80
2022/08/24 00:36:46;;;;;;;4.88;2.65;;;;;;;;;;5077135;28;20423;-79
2022/08/24 00:39:13;;;;;;;4.82;2.80;;;;;;;;;;5077494;28;20443;-80
2022/08/24 00:41:40;;;;;;;3.63;2.90;;;;;;;;;;5077559;28;20411;-79
2022/08/24 00:44:07;;;;;;;5.30;3.30;;;;;;;;;;5056161;28;20465;-80
2022/08/24 00:46:41;;;;;;;4.00;3.05;;;;;;;;;;5073168;28;20420;-80
2022/08/24 00:49:12;;;;;;;3.30;2.80;;;;;;;;;;5076876;28;20427;-80
2022/08/24 00:51:42;;;;;;;4.13;2.92;;;;;;;;;;5076343;28;20433;-81
2022/08/24 00:54:11;;;;;;;5.55;3.13;;;;;;;;;;5071821;28;20510;-80
2022/08/24 00:56:39;;;;;;;4.07;3.50;;;;;;;;;;5059295;28;20480;-80
2022/08/24 00:59:10;;;;;;;4.00;3.00;;;;;;;;;;5074361;28;20484;-81
2022/08/24 01:01:36;;;;;;;6.47;2.70;;;;;;;;;;5071626;28;20913;-80
2022/08/24 01:04:04;;;;;;;4.95;3.20;;;;;;;;;;5071934;28;20499;-81
2022/08/24 01:06:32;;;;;;;5.65;3.30;;;;;;;;;;5070470;28;20429;-81
2022/08/24 01:08:59;;;;;;;4.97;3.08;;;;;;;;;;5071034;28;20428;-81
2022/08/24 01:11:27;;;;;;;6.00;3.00;;;;;;;;;;5075525;28;20418;-80
2022/08/24 01:13:56;;;;;;;4.93;3.00;;;;;;;;;;5075953;28;20431;-81
2022/08/24 01:19:16;;;;;;;5.78;3.60;;;;;;;;;;5079120;28;20832;-80
2022/08/24 01:21:51;;;;;;;3.72;3.03;;;;;;;;;;5076579;28;20419;-80
2022/08/24 01:24:21;;;;;;;4.68;3.38;;;;;;;;;;5071646;28;20459;-80
2022/08/24 01:26:49;;;;;;;4.65;3.10;;;;;;;;;;5073255;28;21828;-81
2022/08/24 01:29:18;;;;;;;5.47;3.10;;;;;;;;;;5076428;28;20432;-81
2022/08/24 01:31:47;;;;;;;5.85;3.53;;;;;;;;;;5075953;28;20487;-80
2022/08/24 01:34:13;;;;;;;3.67;3.10;;;;;;;;;;5075681;28;20774;-81
2022/08/24 01:36:42;;;;;;;6.43;3.20;;;;;;;;;;5052912;28;20481;-80
2022/08/24 01:39:11;;;;;;;4.78;3.30;;;;;;;;;;5072004;28;20444;-82
2022/08/24 01:41:39;;;;;;;4.20;3.17;;;;;;;;;;5071344;28;20434;-80
2022/08/24 01:44:06;;;;;;;3.75;3.40;;;;;;;;;;5071924;28;20441;-82
2022/08/24 01:46:32;;;;;;;5.22;3.25;;;;;;;;;;5073841;28;20434;-79
2022/08/24 01:48:59;;;;;;;4.65;3.28;;;;;;;;;;5073165;28;20445;-81
2022/08/24 01:51:28;;;;;;;5.87;3.20;;;;;;;;;;5073522;28;20461;-81
2022/08/24 01:53:55;;;;;;;4.63;2.90;;;;;;;;;;5071824;28;20429;-81
2022/08/24 01:56:22;;;;;;;3.97;3.58;;;;;;;;;;5071355;28;20430;-81
2022/08/24 01:58:50;;;;;;;5.35;3.30;;;;;;;;;;5072453;28;20778;-80
2022/08/24 02:01:18;;;;;;;4.03;2.70;;;;;;;;;;5071071;28;20407;-81
2022/08/24 02:03:44;;;;;;;3.20;2.63;;;;;;;;;;5071011;28;20449;-80
2022/08/24 02:06:11;;;;;;;7.60;3.58;;;;;;;;;;5072793;28;20407;-80
2022/08/24 02:08:40;;;;;;;4.50;3.10;;;;;;;;;;5074882;28;20909;-80
2022/08/24 02:11:08;;;;;;;5.63;3.40;;;;;;;;;;5075029;28;20435;-80
2022/08/24 02:13:35;;;;;;;5.47;3.28;;;;;;;;;;5072336;28;20508;-81
2022/08/24 02:16:06;;;;;;;4.82;3.42;;;;;;;;;;5074107;28;20417;-80
2022/08/24 02:18:33;;;;;;;4.80;3.35;;;;;;;;;;5056559;28;20427;-81
2022/08/24 02:21:01;;;;;;;6.28;3.33;;;;;;;;;;5053744;28;20436;-81
2022/08/24 02:23:28;;;;;;;4.60;3.10;;;;;;;;;;5055383;28;20429;-80
2022/08/24 02:25:55;;;;;;;4.45;3.30;;;;;;;;;;5052498;28;20434;-80
2022/08/24 02:28:23;;;;;;;5.88;3.50;;;;;;;;;;5054125;28;20421;-80
2022/08/24 02:30:50;;;;;;;5.63;3.50;;;;;;;;;;5054631;28;20452;-80
2022/08/24 02:33:17;;;;;;;4.55;3.00;;;;;;;;;;5055846;28;20484;-80
2022/08/24 02:35:45;;;;;;;4.25;3.15;;;;;;;;;;5058454;28;20436;-81
2022/08/24 02:38:12;;;;;;;5.43;3.40;;;;;;;;;;5056850;28;20464;-80
2022/08/24 02:40:40;;;;;;;6.18;3.53;;;;;;;;;;5053178;28;20440;-81
2022/08/24 02:43:07;;;;;;;5.95;3.40;;;;;;;;;;5076969;28;20953;-80
2022/08/24 02:45:47;;;;;;;4.13;3.23;;;;;;;;;;5078268;28;20467;-81
2022/08/24 02:48:15;;;;;;;4.10;3.70;;;;;;;;;;5058283;28;20422;-80
2022/08/24 02:50:44;;;;;;;5.22;3.05;;;;;;;;;;5056902;28;20433;-80
2022/08/24 02:53:12;;;;;;;5.13;3.20;;;;;;;;;;5058658;28;20491;-80
2022/08/24 02:55:40;;;;;;;3.85;3.42;;;;;;;;;;5033638;28;20447;-81
2022/08/24 02:58:07;;;;;;;5.00;3.47;;;;;;;;;;5080082;28;20419;-80
2022/08/24 03:00:35;;;;;;;5.50;3.40;;;;;;;;;;5063083;28;20431;-80
2022/08/24 03:03:02;;;;;;;3.70;3.13;;;;;;;;;;5079365;28;20431;-79
2022/08/24 03:05:28;;;;;;;6.22;3.75;;;;;;;;;;5058156;28;20439;-79
2022/08/24 03:07:58;;;;;;;3.95;3.55;;;;;;;;;;5079571;28;20485;-80
2022/08/24 03:10:24;;;;;;;5.63;3.60;;;;;;;;;;5078617;28;20481;-79
2022/08/24 03:12:51;;;;;;;3.65;3.30;;;;;;;;;;5077313;28;20420;-79
2022/08/24 03:15:20;;;;;;;6.53;3.87;;;;;;;;;;5079333;28;20434;-79
2022/08/24 03:17:46;;;;;;;5.07;3.58;;;;;;;;;;5077415;28;20522;-80
2022/08/24 03:20:14;;;;;;;5.90;3.80;;;;;;;;;;5076214;28;20992;-80
2022/08/24 03:22:41;;;;;;;5.63;4.13;;;;;;;;;;5066589;28;20439;-82
2022/08/24 03:25:10;;;;;;;5.40;3.60;;;;;;;;;;5076971;28;20425;-80
2022/08/24 03:27:37;;;;;;;4.32;3.60;;;;;;;;;;5076018;28;20419;-80
2022/08/24 03:30:03;;;;;;;6.93;3.10;;;;;;;;;;5065868;28;20427;-81
2022/08/24 03:32:31;;;;;;;3.92;3.55;;;;;;;;;;5073788;28;20438;-79
2022/08/24 03:35:05;;;;;;;6.55;3.88;;;;;;;;;;5075999;28;20454;-81
2022/08/24 03:37:34;;;;;;;4.20;3.80;;;;;;;;;;5075927;28;20420;-81
2022/08/24 03:40:01;;;;;;;4.72;3.58;;;;;;;;;;5072873;28;20428;-82
2022/08/24 03:42:29;;;;;;;4.00;3.00;;;;;;;;;;5073801;28;20810;-81
2022/08/24 03:44:55;;;;;;;5.50;4.60;;;;;;;;;;5076587;28;20439;-82
2022/08/24 03:47:22;;;;;;;8.27;4.50;;;;;;;;;;5073827;28;20451;-82
2022/08/24 03:49:50;;;;;;;7.35;4.20;;;;;;;;;;5072808;28;20437;-80
2022/08/24 03:52:16;;;;;;;4.00;3.20;;;;;;;;;;5078292;28;20447;-80
2022/08/24 03:54:43;;;;;;;4.95;3.58;;;;;;;;;;5078482;28;20437;-80
2022/08/24 03:57:10;;;;;;;5.50;3.75;;;;;;;;;;5077883;28;20434;-80
2022/08/24 03:59:38;;;;;;;3.90;3.60;;;;;;;;;;5073383;28;21078;-82
2022/08/24 04:02:06;;;;;;;6.60;3.90;;;;;;;;;;5074376;28;20446;-82
2022/08/24 04:04:33;;;;;;;6.95;4.50;;;;;;;;;;5074132;28;20442;-81
2022/08/24 04:06:59;;;;;;;5.03;3.83;;;;;;;;;;5079621;28;20435;-81
2022/08/24 04:09:25;;;;;;;6.38;4.50;;;;;;;;;;5077805;28;20924;-81
2022/08/24 04:11:52;;;;;;;7.03;4.18;;;;;;;;;;5078792;28;20428;-81
2022/08/24 04:14:20;;;;;;;7.00;4.30;;;;;;;;;;5077655;28;20420;-82
2022/08/24 04:16:50;;;;;;;5.35;3.92;;;;;;;;;;5062362;28;20457;-80
2022/08/24 04:19:16;;;;;;;6.90;4.30;;;;;;;;;;5074127;28;21015;-82
2022/08/24 04:21:47;;;;;;;6.53;3.80;;;;;;;;;;5052810;28;20415;-82
2022/08/24 04:24:14;;;;;;;6.20;4.45;;;;;;;;;;5057389;28;20514;-81
2022/08/24 04:26:41;;;;;;;6.77;4.47;;;;;;;;;;5073812;28;20417;-81
2022/08/24 04:29:09;;;;;;;5.68;4.07;;;;;;;;;;5075144;28;20978;-81
2022/08/24 04:31:37;;;;;;;5.27;4.27;;;;;;;;;;5069610;28;20438;-81
2022/08/24 04:34:06;;;;;;;7.70;4.30;;;;;;;;;;5076852;28;20421;-81
2022/08/24 04:36:33;;;;;;;4.10;3.70;;;;;;;;;;5074785;28;20487;-81
2022/08/24 04:39:00;;;;;;;6.82;3.85;;;;;;;;;;5071815;28;20441;-80
2022/08/24 04:41:27;;;;;;;6.60;4.33;;;;;;;;;;5071865;28;20427;-81
2022/08/24 04:43:53;;;;;;;4.40;4.00;;;;;;;;;;5077458;28;20463;-81
2022/08/24 04:46:22;;;;;;;5.77;4.30;;;;;;;;;;5076166;28;20963;-80
2022/08/24 04:48:50;;;;;;;6.75;3.90;;;;;;;;;;5075551;28;20438;-80
2022/08/24 04:51:20;;;;;;;6.28;4.72;;;;;;;;;;5078093;28;20900;-79
2022/08/24 04:53:47;;;;;;;7.07;4.20;;;;;;;;;;5077869;28;20439;-80
2022/08/24 04:56:16;;;;;;;8.38;4.25;;;;;;;;;;5073429;28;20451;-80
2022/08/24 04:58:44;;;;;;;5.78;4.25;;;;;;;;;;5079382;28;20440;-82
2022/08/24 05:01:14;;;;;;;5.10;4.10;;;;;;;;;;5077737;28;20434;-80
2022/08/24 05:03:41;;;;;;;5.20;4.05;;;;;;;;;;5075182;28;20474;-80
2022/08/24 05:06:08;;;;;;;6.25;4.20;;;;;;;;;;5071882;28;20854;-81
2022/08/24 05:08:36;;;;;;;5.57;4.25;;;;;;;;;;5079301;28;20418;-80
2022/08/24 05:11:07;;;;;;;6.80;4.20;;;;;;;;;;5067542;28;20477;-80
2022/08/24 05:13:33;;;;;;;7.10;5.68;;;;;;;;;;5072953;28;20431;-80
2022/08/24 05:15:59;;;;;;;5.68;4.57;;;;;;;;;;5067496;28;20430;-80
2022/08/24 05:18:28;;;;;;;7.97;4.30;;;;;;;;;;5070569;28;20434;-81
2022/08/24 05:20:55;;;;;;;5.53;4.37;;;;;;;;;;5073898;28;20437;-79
2022/08/24 05:23:22;;;;;;;5.57;4.40;;;;;;;;;;5049376;28;20444;-80
2022/08/24 05:25:50;;;;;;;5.57;4.30;;;;;;;;;;5062390;28;20425;-83
2022/08/24 05:28:16;;;;;;;5.53;4.03;;;;;;;;;;5076085;28;20418;-82
2022/08/24 05:30:42;;;;;;;4.70;4.00;;;;;;;;;;5074011;28;20419;-82
2022/08/24 05:33:09;;;;;;;6.00;4.40;;;;;;;;;;5074780;28;20427;-82
2022/08/24 05:35:37;;;;;;;6.23;4.00;;;;;;;;;;5075951;28;20803;-82
2022/08/24 05:38:03;;;;;;;7.30;4.55;;;;;;;;;;5074900;28;20419;-80
2022/08/24 05:40:30;;;;;;;4.47;4.07;;;;;;;;;;5075304;28;20421;-80
2022/08/24 05:42:58;;;;;;;4.57;4.18;;;;;;;;;;5077890;28;20420;-79
2022/08/24 05:45:25;;;;;;;6.60;4.40;;;;;;;;;;5059654;28;20429;-81
2022/08/24 05:47:52;;;;;;;7.53;4.45;;;;;;;;;;5075042;28;20416;-80
2022/08/24 05:50:18;;;;;;;5.80;4.00;;;;;;;;;;5078858;28;20789;-79
2022/08/24 05:52:45;;;;;;;7.18;4.25;;;;;;;;;;5078491;28;20789;-82
2022/08/24 05:55:11;;;;;;;9.00;4.90;;;;;;;;;;5076747;28;20912;-79
2022/08/24 05:57:39;;;;;;;5.30;4.60;;;;;;;;;;5076697;28;20438;-80
2022/08/24 06:00:09;;;;;;;4.75;4.30;;;;;;;;;;5069446;28;20646;-79
2022/08/24 06:02:37;;;;;;;6.00;4.30;;;;;;;;;;5076804;28;20457;-81
2022/08/24 06:05:04;;;;;;;5.97;4.23;;;;;;;;;;5076120;28;20427;-80
2022/08/24 06:07:31;;;;;;;6.50;4.47;;;;;;;;;;5076161;28;20431;-81
2022/08/24 06:09:59;;;;;;;5.97;4.57;;;;;;;;;;5074977;28;21284;-80
2022/08/24 06:12:25;;;;;;;6.40;4.47;;;;;;;;;;5073363;28;20521;-81
2022/08/24 06:14:52;;;;;;;5.53;4.38;;;;;;;;;;5058773;28;20428;-81
2022/08/24 06:17:20;;;;;;;7.13;4.47;;;;;;;;;;5075838;28;20435;-81
2022/08/24 06:19:47;;;;;;;5.13;4.43;;;;;;;;;;5075173;28;21003;-80
2022/08/24 06:22:14;;;;;;;6.15;4.10;;;;;;;;;;5074195;28;20434;-83
2022/08/24 06:27:25;;;;;;;7.38;4.57;;;;;;;;;;5074946;28;20498;-80
2022/08/24 06:29:53;;;;;;;5.25;4.75;;;;;;;;;;5072591;28;20807;-81
2022/08/24 06:32:21;;;;;;;8.15;4.90;;;;;;;;;;5075819;28;20415;-80
2022/08/24 06:34:48;;;;;;;7.07;4.40;;;;;;;;;;5048417;28;20423;-80
2022/08/24 06:37:14;;;;;;;4.95;4.45;;;;;;;;;;5075672;28;20430;-80
2022/08/24 06:39:41;;;;;;;6.38;4.22;;;;;;;;;;5077603;28;20511;-80
2022/08/24 06:42:07;;;;;;;5.75;4.10;;;;;;;;;;5076649;28;20463;-80
2022/08/24 06:44:34;;;;;;;8.35;4.65;;;;;;;;;;5078487;28;20422;-81
2022/08/24 06:47:01;;;;;;;6.45;4.25;;;;;;;;;;5073522;28;20428;-80
2022/08/24 06:49:29;;;;;;;5.07;4.20;;;;;;;;;;5075042;28;20809;-80
2022/08/24 06:51:56;;;;;;;7.03;4.80;;;;;;;;;;5076402;28;20416;-80
2022/08/24 06:54:22;;;;;;;7.68;4.40;;;;;;;;;;5060241;28;20438;-81
2022/08/24 06:56:49;;;;;;;8.33;4.93;;;;;;;;;;5076188;28;20832;-80
2022/08/24 06:59:16;;;;;;;6.88;4.90;;;;;;;;;;5076947;28;20475;-82
2022/08/24 07:01:43;;;;;;;7.30;4.38;;;;;;;;;;5076880;28;20408;-80
2022/08/24 07:04:11;;;;;;;7.28;5.00;;;;;;;;;;5075820;28;20415;-80
2022/08/24 07:06:41;;;;;;;7.20;4.60;;;;;;;;;;5071353;28;20458;-79
2022/08/24 07:09:09;;;;;;;8.05;5.15;;;;;;;;;;5071098;28;20435;-81
2022/08/24 07:11:35;;;;;;;9.18;4.50;;;;;;;;;;5055909;28;20419;-81
2022/08/24 07:14:02;;;;;;;11.15;5.63;;;;;;;;;;5075389;28;20442;-80
2022/08/24 07:16:29;;;;;;;8.52;4.57;;;;;;;;;;5075339;28;20407;-80
2022/08/24 07:18:56;;;;;;;9.38;5.50;;;;;;;;;;5074438;28;20420;-82
2022/08/24 07:21:23;;;;;;;9.73;6.28;;;;;;;;;;5076397;28;20900;-82
2022/08/24 07:23:54;;;;;;;9.20;5.77;;;;;;;;;;5076117;28;20926;-81
2022/08/24 07:26:21;;;;;;;85.97;19.30;;;;;;;;;;5076068;28;20440;-81
2022/08/24 07:28:48;;;;;;;11.88;6.32;;;;;;;;;;5080310;28;20430;-81
2022/08/24 07:31:15;;;;;;;11.75;5.65;;;;;;;;;;5080842;28;20498;-81
2022/08/24 07:33:41;;;;;;;8.38;5.28;;;;;;;;;;5080811;28;20481;-81
2022/08/24 07:36:07;;;;;;;9.47;5.37;;;;;;;;;;5080311;28;20502;-80
2022/08/24 07:38:37;;;;;;;9.20;5.25;;;;;;;;;;5078232;28;21058;-80
2022/08/24 07:41:07;;;;;;;9.45;5.60;;;;;;;;;;5077248;28;20865;-81
2022/08/24 07:43:34;;;;;;;9.47;5.27;;;;;;;;;;5071592;28;20499;-81
2022/08/24 07:46:05;;;;;;;7.70;5.20;;;;;;;;;;5073804;28;20425;-82
2022/08/24 07:48:31;;;;;;;12.95;6.90;;;;;;;;;;5065822;28;20438;-80
2022/08/24 07:50:58;;;;;;;10.30;6.93;;;;;;;;;;5062234;28;20418;-82
2022/08/24 07:53:25;;;;;;;10.25;7.07;;;;;;;;;;5079794;28;20472;-80
2022/08/24 07:55:54;;;;;;;10.88;6.68;;;;;;;;;;5078132;28;20408;-80
2022/08/24 07:58:24;;;;;;;10.80;6.10;;;;;;;;;;5054690;28;20871;-81
2022/08/24 08:00:50;;;;;;;9.10;5.20;;;;;;;;;;5075233;28;20428;-81
2022/08/24 08:03:23;;;;;;;11.77;5.35;;;;;;;;;;5051440;28;20415;-81
2022/08/24 08:05:55;;;;;;;8.23;4.83;;;;;;;;;;5077160;28;20423;-81
2022/08/24 08:08:23;;;;;;;7.93;4.65;;;;;;;;;;5077342;28;20495;-81
2022/08/24 08:10:49;;;;;;;10.88;5.20;;;;;;;;;;5075508;28;20774;-80
2022/08/24 08:13:16;;;;;;;9.70;5.00;;;;;;;;;;5076267;28;20411;-81
2022/08/24 08:15:48;;;;;;;10.27;5.18;;;;;;;;;;5077240;28;20411;-82
2022/08/24 08:18:15;;;;;;;11.35;4.95;;;;;;;;;;5076326;28;20415;-81
2022/08/24 08:20:42;;;;;;;8.03;5.03;;;;;;;;;;5078599;28;21060;-80
2022/08/24 08:25:56;;;;;;;7.32;5.10;;;;;;;;;;5076607;28;20426;-80
2022/08/24 08:28:23;;;;;;;9.13;4.80;;;;;;;;;;5077720;28;20423;-80
2022/08/24 08:30:52;;;;;;;8.38;4.10;;;;;;;;;;5057854;28;20421;-81
2022/08/24 08:33:18;;;;;;;9.60;4.47;;;;;;;;;;5057674;28;20423;-81
2022/08/24 08:35:45;;;;;;;7.97;4.63;;;;;;;;;;5056658;28;20808;-80
2022/08/24 08:38:12;;;;;;;5.70;4.03;;;;;;;;;;5057285;28;20425;-81
2022/08/24 08:40:46;;;;;;;7.73;4.93;;;;;;;;;;5056664;28;20409;-81
2022/08/24 08:43:18;;;;;;;8.93;5.25;;;;;;;;;;5057982;28;20425;-82
2022/08/24 08:45:52;;;;;;;7.72;5.10;;;;;;;;;;5058166;28;21066;-80
2022/08/24 08:48:40;;;;;;;8.23;5.20;;;;;;;;;;5054684;28;20786;-83
2022/08/24 08:51:25;;;;;;;7.20;5.00;;;;;;;;;;5046854;28;20423;-81
2022/08/24 08:54:02;;;;;;;8.75;5.03;;;;;;;;;;5073569;28;20419;-82
2022/08/24 08:56:35;;;;;;;9.23;4.50;;;;;;;;;;5055501;28;20441;-81
2022/08/24 08:59:05;;;;;;;13.73;4.68;;;;;;;;;;5055670;28;20413;-81
2022/08/24 09:01:38;;;;;;;9.10;4.80;;;;;;;;;;5057657;28;20429;-80
2022/08/24 09:04:13;;;;;;;6.93;4.25;;;;;;;;;;5045134;28;20413;-83
2022/08/24 09:06:45;;;;;;;8.32;4.70;;;;;;;;;;5056299;28;20429;-81
2022/08/24 09:09:24;;;;;;;8.77;4.33;;;;;;;;;;5055453;28;20414;-81
2022/08/24 09:11:56;;;;;;;9.50;4.40;;;;;;;;;;5054501;28;20535;-81
2022/08/24 09:14:35;;;;;;;10.55;5.22;;;;;;;;;;5057479;28;20439;-81
2022/08/24 09:17:09;;;;;;;10.70;4.80;;;;;;;;;;5057747;28;20417;-81
2022/08/24 09:19:45;;;;;;;8.23;5.00;;;;;;;;;;5054029;28;20452;-80
2022/08/24 09:22:12;;;;;;;10.20;5.53;;;;;;;;;;5037969;28;20429;-80
2022/08/24 09:24:44;;;;;;;8.07;4.65;;;;;;;;;;5057601;28;20487;-81
2022/08/24 09:27:15;;;;;;;8.85;4.80;;;;;;;;;;5053507;28;20429;-82
2022/08/24 09:29:47;;;;;;;7.88;4.70;;;;;;;;;;5055816;28;20414;-81
2022/08/24 09:32:25;;;;;;;11.37;4.40;;;;;;;;;;5056264;28;20417;-81
2022/08/24 09:34:56;;;;;;;7.85;4.30;;;;;;;;;;5057774;28;20437;-80
2022/08/24 09:37:39;;;;;;;7.43;3.80;;;;;;;;;;5054137;28;20469;-81
2022/08/24 09:40:23;;;;;;;7.93;4.30;;;;;;;;;;5054973;28;20421;-81
2022/08/24 09:43:08;;;;;;;8.50;4.70;;;;;;;;;;5054788;28;20425;-80
2022/08/24 09:45:53;;;;;;;7.03;4.60;;;;;;;;;;5028149;28;20427;-81
2022/08/24 09:48:46;;;;;;;10.68;4.30;;;;;;;;;;5074551;28;20963;-81
2022/08/24 09:51:31;;;;;;;5.22;4.28;;;;;;;;;;5009209;28;20412;-82
2022/08/24 09:54:16;;;;;;;4.18;3.28;;;;;;;;;;5042813;28;20506;-82
2022/08/24 09:56:55;;;;;;;9.02;4.00;;;;;;;;;;5052073;28;21315;-82
2022/08/24 09:59:27;;;;;;;9.23;4.40;;;;;;;;;;5052979;28;20495;-80
2022/08/24 10:01:59;;;;;;;10.95;3.92;;;;;;;;;;5055031;28;20409;-81
2022/08/24 10:04:30;;;;;;;8.03;4.30;;;;;;;;;;5053868;28;20439;-82
2022/08/24 10:07:01;;;;;;;6.97;3.95;;;;;;;;;;5056290;28;20487;-81
2022/08/24 10:09:47;;;;;;;7.38;4.00;;;;;;;;;;5053639;28;20423;-82
2022/08/24 10:12:26;;;;;;;8.35;3.97;;;;;;;;;;5035516;28;20434;-81
2022/08/24 10:14:59;;;;;;;7.03;4.07;;;;;;;;;;5054218;28;20518;-81
2022/08/24 10:17:31;;;;;;;8.00;4.17;;;;;;;;;;5057358;28;20405;-81
2022/08/24 10:20:02;;;;;;;5.15;3.72;;;;;;;;;;5056014;28;20452;-81
2022/08/24 10:22:34;;;;;;;7.68;4.20;;;;;;;;;;5056038;28;20409;-82
2022/08/24 10:25:07;;;;;;;5.27;3.73;;;;;;;;;;5039238;28;20406;-81
2022/08/24 10:27:42;;;;;;;6.32;3.38;;;;;;;;;;5054408;28;20425;-80
2022/08/24 10:30:33;;;;;;;6.70;4.03;;;;;;;;;;5050750;28;20429;-80
2022/08/24 10:33:06;;;;;;;5.90;3.60;;;;;;;;;;5056308;28;20471;-80
2022/08/24 10:35:35;;;;;;;6.30;3.40;;;;;;;;;;5056201;28;20424;-81
2022/08/24 10:41:15;;;;;;;7.97;3.60;;;;;;;;;;5054937;28;20403;-81
2022/08/24 10:43:50;;;;;;;5.00;3.47;;;;;;;;;;5051633;28;20456;-81
2022/08/24 10:46:31;;;;;;;7.20;3.80;;;;;;;;;;5053272;28;20919;-82
2022/08/24 10:49:16;;;;;;;6.43;3.85;;;;;;;;;;5052793;28;20410;-83
2022/08/24 10:51:52;;;;;;;5.57;3.78;;;;;;;;;;5053987;28;20570;-81
2022/08/24 10:54:22;;;;;;;4.25;3.38;;;;;;;;;;5051646;28;20439;-81
2022/08/24 10:56:57;;;;;;;6.90;3.90;;;;;;;;;;5054666;28;20428;-80
2022/08/24 10:59:25;;;;;;;4.50;3.40;;;;;;;;;;5059491;28;20414;-81
2022/08/24 11:02:04;;;;;;;4.53;4.10;;;;;;;;;;5061171;28;20417;-82
2022/08/24 11:04:31;;;;;;;4.80;3.70;;;;;;;;;;5058566;28;20413;-80
2022/08/24 11:07:06;;;;;;;5.57;3.20;;;;;;;;;;5060835;28;20469;-81
2022/08/24 11:09:43;;;;;;;5.93;4.13;;;;;;;;;;5057414;28;20969;-82
2022/08/24 11:12:17;;;;;;;5.40;3.80;;;;;;;;;;5055674;28;20433;-81
2022/08/24 11:14:46;;;;;;;6.97;3.80;;;;;;;;;;5058874;28;20425;-82
2022/08/24 11:17:14;;;;;;;5.50;3.80;;;;;;;;;;5058380;28;20791;-81
2022/08/24 11:19:41;;;;;;;6.30;3.55;;;;;;;;;;5058413;28;20432;-83
2022/08/24 11:22:23;;;;;;;4.80;3.35;;;;;;;;;;5057985;28;20866;-83
2022/08/24 11:24:52;;;;;;;7.22;3.58;;;;;;;;;;5057573;28;20414;-83
2022/08/24 11:27:23;;;;;;;4.72;3.65;;;;;;;;;;5057599;28;20420;-82
2022/08/24 11:30:17;;;;;;;5.00;4.00;;;;;;;;;;5057780;28;20502;-82
2022/08/24 11:32:47;;;;;;;5.75;3.50;;;;;;;;;;5057396;28;20428;-82
2022/08/24 11:35:22;;;;;;;5.93;3.85;;;;;;;;;;5058472;28;20509;-81
2022/08/24 11:37:50;;;;;;;3.73;3.30;;;;;;;;;;5056859;28;20409;-82
2022/08/24 11:40:17;;;;;;;5.47;3.30;;;;;;;;;;5054458;28;20417;-81
2022/08/24 11:42:52;;;;;;;4.67;3.37;;;;;;;;;;5058038;28;20777;-82
2022/08/24 11:45:23;;;;;;;4.67;3.20;;;;;;;;;;5057344;28;20422;-82
2022/08/24 11:47:58;;;;;;;6.90;3.80;;;;;;;;;;5037327;28;20982;-79
2022/08/24 11:50:33;;;;;;;8.35;3.70;;;;;;;;;;5058033;28;20425;-80
2022/08/24 11:53:07;;;;;;;6.45;3.58;;;;;;;;;;5033116;28;20891;-81
2022/08/24 11:55:36;;;;;;;6.90;4.10;;;;;;;;;;5052284;28;20441;-80
2022/08/24 11:58:06;;;;;;;5.00;3.50;;;;;;;;;;5035869;28;20424;-81
2022/08/24 12:00:39;;;;;;;7.75;4.10;;;;;;;;;;5040406;28;20413;-83
2022/08/24 12:03:09;;;;;;;7.97;3.53;;;;;;;;;;5058624;28;20417;-81
2022/08/24 12:05:41;;;;;;;3.78;3.20;;;;;;;;;;5052650;28;20425;-81
2022/08/24 12:08:17;;;;;;;7.50;3.70;;;;;;;;;;5059104;28;20433;-80
2022/08/24 12:10:48;;;;;;;3.67;3.22;;;;;;;;;;5054096;28;21045;-81
2022/08/24 12:13:23;;;;;;;4.57;3.50;;;;;;;;;;5058398;28;20417;-81
2022/08/24 12:15:53;;;;;;;5.82;4.00;;;;;;;;;;5057622;28;20417;-80
2022/08/24 12:18:24;;;;;;;5.32;3.35;;;;;;;;;;5056571;28;20536;-81
2022/08/24 12:20:52;;;;;;;9.70;4.30;;;;;;;;;;5032199;28;20417;-81
2022/08/24 12:23:23;;;;;;;6.47;3.90;;;;;;;;;;5058884;28;20467;-81
2022/08/24 12:26:03;;;;;;;3.90;3.50;;;;;;;;;;5054841;28;20430;-80
2022/08/24 12:28:31;;;;;;;3.90;3.60;;;;;;;;;;5056592;28;20938;-81
2022/08/24 12:31:02;;;;;;;5.32;3.40;;;;;;;;;;5057077;28;21171;-82
2022/08/24 12:33:31;;;;;;;5.23;3.73;;;;;;;;;;5054203;28;20444;-81
2022/08/24 12:36:01;;;;;;;6.53;3.55;;;;;;;;;;5056834;28;20421;-81
2022/08/24 12:38:29;;;;;;;3.47;3.17;;;;;;;;;;5054234;28;20432;-82
2022/08/24 12:40:56;;;;;;;5.10;3.70;;;;;;;;;;5056935;28;20428;-80
2022/08/24 12:43:25;;;;;;;6.35;3.67;;;;;;;;;;5057156;28;20420;-80
2022/08/24 12:45:52;;;;;;;4.25;3.05;;;;;;;;;;5052087;28;20452;-81
2022/08/24 12:48:24;;;;;;;8.20;3.70;;;;;;;;;;5055910;28;20825;-81
2022/08/24 12:51:01;;;;;;;7.70;3.85;;;;;;;;;;5039289;28;20441;-81
2022/08/24 12:53:48;;;;;;;7.18;3.50;;;;;;;;;;5056365;28;20532;-80
2022/08/24 12:56:25;;;;;;;5.53;3.90;;;;;;;;;;5051295;28;20472;-80
2022/08/24 12:58:54;;;;;;;5.70;3.57;;;;;;;;;;5057812;28;20406;-80
2022/08/24 13:01:22;;;;;;;4.63;3.60;;;;;;;;;;5056981;28;20414;-83
2022/08/24 13:04:04;;;;;;;4.20;3.03;;;;;;;;;;5056859;28;20409;-81
2022/08/24 13:06:37;;;;;;;6.60;4.00;;;;;;;;;;5054272;28;20512;-82
2022/08/24 13:09:06;;;;;;;4.90;3.47;;;;;;;;;;5053761;28;20500;-83
2022/08/24 13:11:33;;;;;;;5.03;3.40;;;;;;;;;;5056430;28;20489;-82
2022/08/24 13:14:14;;;;;;;8.70;4.30;;;;;;;;;;5056186;28;20471;-83
2022/08/24 13:16:46;;;;;;;5.85;3.75;;;;;;;;;;5036250;28;20466;-83
2022/08/24 13:19:15;;;;;;;7.40;3.92;;;;;;;;;;5053509;28;20409;-82
2022/08/24 13:21:50;;;;;;;6.15;3.60;;;;;;;;;;5055561;28;20419;-82
2022/08/24 13:24:49;;;;;;;4.60;3.47;;;;;;;;;;5052891;28;20428;-82
2022/08/24 13:27:48;;;;;;;4.40;3.40;;;;;;;;;;5055542;28;20441;-82
2022/08/24 13:30:30;;;;;;;5.22;3.47;;;;;;;;;;5055586;28;20444;-82
2022/08/24 13:32:59;;;;;;;6.10;4.03;;;;;;;;;;5056146;28;20768;-80
2022/08/24 13:35:33;;;;;;;8.10;3.80;;;;;;;;;;5055752;28;20420;-81
2022/08/24 13:38:15;;;;;;;10.05;3.78;;;;;;;;;;5036021;28;20436;-81
2022/08/24 13:40:45;;;;;;;4.53;3.20;;;;;;;;;;5050278;28;20425;-81
2022/08/24 13:43:16;;;;;;;6.32;3.40;;;;;;;;;;5038130;28;20413;-81
2022/08/24 13:45:45;;;;;;;6.85;3.30;;;;;;;;;;5044505;28;20429;-80
2022/08/24 13:48:26;;;;;;;4.05;3.20;;;;;;;;;;5055658;28;20433;-81
2022/08/24 13:51:12;;;;;;;7.68;3.67;;;;;;;;;;5054524;28;20413;-82
2022/08/24 13:53:57;;;;;;;6.13;3.80;;;;;;;;;;5036656;28;20494;-82
2022/08/24 13:56:37;;;;;;;7.68;3.70;;;;;;;;;;5049080;28;20437;-82
2022/08/24 13:59:08;;;;;;;5.32;3.10;;;;;;;;;;5052686;28;20413;-82
2022/08/24 14:01:38;;;;;;;6.03;3.35;;;;;;;;;;5053745;28;20444;-80
2022/08/24 14:04:09;;;;;;;3.70;3.40;;;;;;;;;;5054011;28;20417;-82
2022/08/24 14:06:49;;;;;;;4.78;3.10;;;;;;;;;;5052840;28;20436;-82
2022/08/24 14:09:21;;;;;;;4.40;2.83;;;;;;;;;;5052364;28;20421;-83
2022/08/24 14:11:58;;;;;;;4.25;3.50;;;;;;;;;;5052376;28;20413;-83
2022/08/24 14:14:34;;;;;;;6.68;3.72;;;;;;;;;;5052938;28;20428;-82
2022/08/24 14:19:57;;;;;;;7.75;4.25;;;;;;;;;;5055282;28;20854;-82
2022/08/24 14:22:33;;;;;;;7.13;4.00;;;;;;;;;;5054314;28;20429;-82
2022/08/24 14:25:11;;;;;;;4.45;3.20;;;;;;;;;;5054718;28;21029;-81
2022/08/24 14:27:41;;;;;;;4.63;2.90;;;;;;;;;;5049169;28;20435;-81
2022/08/24 14:30:28;;;;;;;4.13;3.38;;;;;;;;;;5056039;28;20948;-82
2022/08/24 14:33:06;;;;;;;5.43;3.40;;;;;;;;;;5055616;28;20419;-83
2022/08/24 14:35:36;;;;;;;4.30;2.90;;;;;;;;;;5054714;28;20421;-81
2022/08/24 14:38:21;;;;;;;5.10;2.80;;;;;;;;;;5053999;28;20476;-80
2022/08/24 14:40:58;;;;;;;4.30;3.20;;;;;;;;;;5056823;28;20425;-81
2022/08/24 14:43:29;;;;;;;6.57;3.60;;;;;;;;;;5050139;28;20463;-81
2022/08/24 14:46:00;;;;;;;8.75;3.60;;;;;;;;;;5058185;28;20413;-81
2022/08/24 14:48:44;;;;;;;6.50;3.60;;;;;;;;;;5056557;28;20447;-81
2022/08/24 14:51:15;;;;;;;3.65;3.08;;;;;;;;;;5055983;28;20897;-82
2022/08/24 14:53:54;;;;;;;3.35;3.03;;;;;;;;;;5058342;28;20424;-82
2022/08/24 14:56:30;;;;;;;4.88;3.17;;;;;;;;;;5055247;28;20437;-81
2022/08/24 14:58:59;;;;;;;4.27;3.17;;;;;;;;;;5055939;28;20409;-80
2022/08/24 15:01:37;;;;;;;5.13;2.88;;;;;;;;;;5057564;28;20446;-81
2022/08/24 15:04:12;;;;;;;5.40;3.15;;;;;;;;;;5058129;28;20413;-83
2022/08/24 15:06:42;;;;;;;4.50;3.25;;;;;;;;;;5053340;28;20436;-83
2022/08/24 15:09:10;;;;;;;5.13;3.30;;;;;;;;;;5053824;28;20420;-83
2022/08/24 15:11:39;;;;;;;5.45;3.60;;;;;;;;;;5053760;28;20436;-83
2022/08/24 15:14:07;;;;;;;4.50;3.20;;;;;;;;;;5055035;28;20470;-82
2022/08/24 15:16:43;;;;;;;4.40;3.20;;;;;;;;;;5058604;28;20417;-82
2022/08/24 15:19:14;;;;;;;3.97;3.35;;;;;;;;;;5055813;28;20467;-82